createdAt,value
2022-12-02T00:01:06.113Z,101230.17
2022-12-02T00:03:37.329Z,101228.23
2022-12-02T00:06:14.657Z,101230.30
2022-12-02T00:08:42.645Z,101236.29
2022-12-02T00:11:39.885Z,101233.83
2022-12-02T00:14:35.083Z,101232.86
2022-12-02T00:17:02.797Z,101234.90
2022-12-02T00:19:30.921Z,101232.10
2022-12-02T00:21:58.672Z,101232.95
2022-12-02T00:24:26.411Z,101231.52
2022-12-02T00:26:54.209Z,101226.74
2022-12-02T00:29:22.018Z,101227.29
2022-12-02T00:31:49.807Z,101224.25
2022-12-02T00:34:17.605Z,101224.14
2022-12-02T00:36:45.376Z,101219.50
2022-12-02T00:39:13.107Z,101216.34
2022-12-02T00:41:40.907Z,101213.17
2022-12-02T00:44:27.889Z,101213.84
2022-12-02T00:46:55.909Z,101208.61
2022-12-02T00:49:23.705Z,101205.35
2022-12-02T00:51:51.469Z,101201.73
2022-12-02T00:54:19.217Z,101204.19
2022-12-02T00:56:46.912Z,101206.33
2022-12-02T00:59:15.001Z,101205.20
2022-12-02T01:01:44.952Z,101210.55
2022-12-02T01:04:12.813Z,101206.30
2022-12-02T01:06:41.059Z,101207.30
2022-12-02T01:09:09.884Z,101214.31
2022-12-02T01:11:37.593Z,101205.40
2022-12-02T01:14:05.349Z,101207.10
2022-12-02T01:16:33.139Z,101209.12
2022-12-02T01:19:01.001Z,101208.70
2022-12-02T01:21:29.033Z,101212.11
2022-12-02T01:23:56.749Z,101209.65
2022-12-02T01:26:24.557Z,101205.45
2022-12-02T01:28:52.318Z,101203.80
2022-12-02T01:31:20.095Z,101200.33
2022-12-02T01:33:47.904Z,101197.75
2022-12-02T01:36:18.164Z,101199.69
2022-12-02T01:38:46.187Z,101194.50
2022-12-02T01:41:13.967Z,101195.62
2022-12-02T01:43:42.755Z,101198.58
2022-12-02T01:46:10.970Z,101197.24
2022-12-02T01:48:38.947Z,101193.16
2022-12-02T01:51:07.126Z,101194.16
2022-12-02T01:53:35.166Z,101191.71
2022-12-02T01:56:03.117Z,101190.41
2022-12-02T01:58:32.816Z,101191.48
2022-12-02T02:01:00.658Z,101187.04
2022-12-02T02:03:28.494Z,101183.79
2022-12-02T02:05:56.407Z,101185.43
2022-12-02T02:08:24.179Z,101182.05
2022-12-02T02:10:51.966Z,101181.80
2022-12-02T02:13:20.086Z,101186.98
2022-12-02T02:15:47.833Z,101186.84
2022-12-02T02:18:17.120Z,101185.07
2022-12-02T02:20:45.062Z,101189.54
2022-12-02T02:23:19.455Z,101189.80
2022-12-02T02:25:49.524Z,101193.38
2022-12-02T02:28:19.755Z,101196.80
2022-12-02T02:30:48.403Z,101192.45
2022-12-02T02:33:17.059Z,101190.86
2022-12-02T02:35:45.403Z,101189.45
2022-12-02T02:38:21.079Z,101184.84
2022-12-02T02:40:49.334Z,101185.39
2022-12-02T02:43:18.997Z,101187.02
2022-12-02T02:45:47.180Z,101187.85
2022-12-02T02:48:16.136Z,101193.55
2022-12-02T02:50:46.308Z,101195.27
2022-12-02T02:53:16.831Z,101202.19
2022-12-02T02:55:44.617Z,101199.46
2022-12-02T02:58:15.562Z,101203.16
2022-12-02T03:00:48.558Z,101201.26
2022-12-02T03:03:18.795Z,101198.75
2022-12-02T03:05:48.760Z,101196.00
2022-12-02T03:08:16.676Z,101191.58
2022-12-02T03:10:44.404Z,101184.36
2022-12-02T03:13:12.398Z,101184.65
2022-12-02T03:15:40.333Z,101183.78
2022-12-02T03:18:08.272Z,101181.17
2022-12-02T03:20:35.992Z,101168.36
2022-12-02T03:23:03.926Z,101167.59
2022-12-02T03:25:31.698Z,101165.49
2022-12-02T03:27:59.736Z,101162.20
2022-12-02T03:30:27.692Z,101162.74
2022-12-02T03:32:55.479Z,101162.77
2022-12-02T03:35:23.264Z,101159.45
2022-12-02T03:37:51.386Z,101155.08
2022-12-02T03:40:19.310Z,101150.46
2022-12-02T03:42:47.014Z,101149.96
2022-12-02T03:45:14.785Z,101149.80
2022-12-02T03:47:42.630Z,101144.04
2022-12-02T03:50:11.419Z,101144.22
2022-12-02T03:52:39.500Z,101138.55
2022-12-02T03:55:07.915Z,101137.13
2022-12-02T03:57:35.700Z,101137.24
2022-12-02T04:00:05.365Z,101134.23
2022-12-02T04:02:40.389Z,101135.87
2022-12-02T04:05:08.853Z,101128.90
2022-12-02T04:07:36.722Z,101126.19
2022-12-02T04:10:05.397Z,101127.15
2022-12-02T04:12:33.170Z,101130.46
2022-12-02T04:15:00.846Z,101127.05
2022-12-02T04:17:28.672Z,101130.71
2022-12-02T04:19:56.412Z,101126.66
2022-12-02T04:22:24.357Z,101124.27
2022-12-02T04:24:52.457Z,101130.64
2022-12-02T04:27:20.598Z,101134.48
2022-12-02T04:29:48.333Z,101135.46
2022-12-02T04:32:16.398Z,101138.66
2022-12-02T04:34:44.174Z,101136.08
2022-12-02T04:37:11.903Z,101137.48
2022-12-02T04:39:39.650Z,101139.21
2022-12-02T04:42:07.422Z,101139.46
2022-12-02T04:44:35.143Z,101134.25
2022-12-02T04:47:02.984Z,101138.70
2022-12-02T04:49:30.702Z,101135.57
2022-12-02T04:51:58.446Z,101133.89
2022-12-02T04:54:26.313Z,101141.23
2022-12-02T04:56:54.562Z,101137.55
2022-12-02T04:59:22.318Z,101135.34
2022-12-02T05:01:50.156Z,101136.89
2022-12-02T05:04:18.046Z,101136.02
2022-12-02T05:06:45.901Z,101136.05
2022-12-02T05:09:13.616Z,101139.35
2022-12-02T05:11:41.468Z,101138.81
2022-12-02T05:14:09.297Z,101135.74
2022-12-02T05:16:37.044Z,101133.02
2022-12-02T05:19:04.899Z,101136.10
2022-12-02T05:21:32.756Z,101136.08
2022-12-02T05:24:06.198Z,101134.35
2022-12-02T05:26:34.211Z,101135.27
2022-12-02T05:29:02.063Z,101133.54
2022-12-02T05:31:30.016Z,101136.23
2022-12-02T05:33:57.985Z,101133.61
2022-12-02T05:36:25.935Z,101134.58
2022-12-02T05:38:53.767Z,101132.30
2022-12-02T05:41:21.475Z,101133.80
2022-12-02T05:43:49.269Z,101134.48
2022-12-02T05:46:21.775Z,101134.91
2022-12-02T05:48:50.492Z,101144.83
2022-12-02T05:51:21.534Z,101144.77
2022-12-02T05:53:50.869Z,101139.79
2022-12-02T05:56:36.819Z,101139.92
2022-12-02T05:59:08.248Z,101142.41
2022-12-02T06:01:39.257Z,101144.36
2022-12-02T06:04:22.792Z,101148.61
2022-12-02T06:06:52.729Z,101149.06
2022-12-02T06:09:26.199Z,101150.39
2022-12-02T06:11:54.231Z,101153.29
2022-12-02T06:14:24.503Z,101154.97
2022-12-02T06:16:56.698Z,101154.84
2022-12-02T06:19:45.248Z,101160.27
2022-12-02T06:22:25.477Z,101165.75
2022-12-02T06:24:57.809Z,101167.73
2022-12-02T06:27:25.453Z,101170.64
2022-12-02T06:29:57.747Z,101167.35
2022-12-02T06:32:27.465Z,101168.27
2022-12-02T06:34:55.209Z,101165.45
2022-12-02T06:37:25.104Z,101167.89
2022-12-02T06:40:26.581Z,101168.41
2022-12-02T06:42:43.511Z,101169.30
2022-12-02T06:45:14.248Z,101172.27
2022-12-02T06:47:41.963Z,101178.80
2022-12-02T06:50:35.164Z,101182.38
2022-12-02T06:53:28.091Z,101175.02
2022-12-02T06:56:01.894Z,101175.70
2022-12-02T06:58:39.726Z,101174.27
2022-12-02T07:01:07.490Z,101175.08
2022-12-02T07:03:38.691Z,101178.61
2022-12-02T07:06:19.529Z,101173.89
2022-12-02T07:08:47.757Z,101178.98
2022-12-02T07:11:44.064Z,101180.95
2022-12-02T07:14:21.348Z,101178.58
2022-12-02T07:16:50.384Z,101174.61
2022-12-02T07:19:24.366Z,101176.25
2022-12-02T07:21:53.820Z,101174.95
2022-12-02T07:24:23.242Z,101172.80
2022-12-02T07:26:51.306Z,101170.44
2022-12-02T07:29:30.133Z,101175.52
2022-12-02T07:31:57.857Z,101174.33
2022-12-02T07:34:30.977Z,101178.13
2022-12-02T07:37:01.924Z,101184.77
2022-12-02T07:39:29.712Z,101189.30
2022-12-02T07:41:57.472Z,101189.02
2022-12-02T07:44:25.175Z,101189.01
2022-12-02T07:46:52.948Z,101189.10
2022-12-02T07:49:20.859Z,101191.77
2022-12-02T07:51:48.970Z,101191.31
2022-12-02T07:54:16.752Z,101190.30
2022-12-02T07:56:44.562Z,101182.84
2022-12-02T07:59:13.593Z,101182.56
2022-12-02T08:01:41.867Z,101178.94
2022-12-02T08:04:09.747Z,101179.86
2022-12-02T08:06:39.788Z,101180.33
2022-12-02T08:09:09.434Z,101181.73
2022-12-02T08:11:37.371Z,101183.61
2022-12-02T08:14:05.538Z,101180.96
2022-12-02T08:16:34.029Z,101177.64
2022-12-02T08:19:01.890Z,101172.88
2022-12-02T08:21:31.174Z,101174.64
2022-12-02T08:23:58.916Z,101174.15
2022-12-02T08:26:26.715Z,101178.60
2022-12-02T08:28:54.673Z,101177.95
2022-12-02T08:31:22.763Z,101181.84
2022-12-02T08:33:51.675Z,101177.69
2022-12-02T08:36:20.630Z,101175.94
2022-12-02T08:38:48.709Z,101172.59
2022-12-02T08:41:17.250Z,101169.68
2022-12-02T08:43:44.972Z,101173.44
2022-12-02T08:46:14.348Z,101168.98
2022-12-02T08:48:42.560Z,101170.57
2022-12-02T08:51:10.334Z,101166.95
2022-12-02T08:53:38.107Z,101167.70
2022-12-02T08:56:06.022Z,101169.90
2022-12-02T08:58:33.724Z,101176.34
2022-12-02T09:01:01.470Z,101178.41
2022-12-02T09:03:29.436Z,101176.63
2022-12-02T09:05:57.160Z,101185.85
2022-12-02T09:08:25.247Z,101180.94
2022-12-02T09:10:53.380Z,101179.06
2022-12-02T09:13:21.216Z,101178.55
2022-12-02T09:15:48.949Z,101183.77
2022-12-02T09:18:16.763Z,101179.67
2022-12-02T09:20:44.509Z,101182.91
2022-12-02T09:23:12.304Z,101178.62
2022-12-02T09:25:40.023Z,101178.01
2022-12-02T09:28:07.987Z,101173.88
2022-12-02T09:30:35.742Z,101174.72
2022-12-02T09:33:03.596Z,101176.92
2022-12-02T09:35:31.332Z,101177.89
2022-12-02T09:37:59.210Z,101176.36
2022-12-02T09:40:27.299Z,101171.61
2022-12-02T09:42:55.275Z,101172.95
2022-12-02T09:45:23.108Z,101175.22
2022-12-02T09:47:51.085Z,101174.58
2022-12-02T09:50:18.964Z,101172.37
2022-12-02T09:52:47.194Z,101173.46
2022-12-02T09:55:17.418Z,101175.83
2022-12-02T09:57:45.521Z,101179.10
2022-12-02T10:00:19.224Z,101174.00
2022-12-02T10:02:52.176Z,101173.90
2022-12-02T10:05:26.564Z,101172.36
2022-12-02T10:07:57.288Z,101164.35
2022-12-02T10:10:35.145Z,101163.89
2022-12-02T10:13:07.763Z,101161.06
2022-12-02T10:15:35.957Z,101162.08
2022-12-02T10:18:16.408Z,101159.05
2022-12-02T10:20:44.363Z,101153.15
2022-12-02T10:23:18.061Z,101152.57
2022-12-02T10:25:48.330Z,101155.96
2022-12-02T10:28:26.079Z,101150.98
2022-12-02T10:31:05.421Z,101156.59
2022-12-02T10:33:35.882Z,101155.54
2022-12-02T10:36:03.709Z,101157.77
2022-12-02T10:38:43.443Z,101156.00
2022-12-02T10:41:14.279Z,101151.56
2022-12-02T10:43:44.484Z,101151.87
2022-12-02T10:46:14.445Z,101147.02
2022-12-02T10:48:42.516Z,101145.98
2022-12-02T10:51:15.548Z,101147.00
2022-12-02T10:53:44.470Z,101149.70
2022-12-02T10:56:18.321Z,101144.02
2022-12-02T10:58:47.695Z,101141.72
2022-12-02T11:01:15.779Z,101139.48
2022-12-02T11:03:43.682Z,101137.60
2022-12-02T11:06:19.501Z,101137.66
2022-12-02T11:08:50.357Z,101138.81
2022-12-02T11:11:39.188Z,101141.41
2022-12-02T11:14:28.358Z,101140.52
2022-12-02T11:17:10.452Z,101138.27
2022-12-02T11:19:46.341Z,101136.60
2022-12-02T11:22:52.159Z,101141.46
2022-12-02T11:25:49.314Z,101143.66
2022-12-02T11:28:29.193Z,101143.22
2022-12-02T11:31:12.379Z,101140.02
2022-12-02T11:33:53.702Z,101141.16
2022-12-02T11:36:27.850Z,101135.09
2022-12-02T11:38:55.682Z,101129.49
2022-12-02T11:41:23.421Z,101134.52
2022-12-02T11:43:53.773Z,101138.13
2022-12-02T11:46:24.604Z,101132.02
2022-12-02T11:48:54.742Z,101133.04
2022-12-02T11:51:28.599Z,101126.60
2022-12-02T11:53:56.513Z,101125.87
2022-12-02T11:56:35.733Z,101125.77
2022-12-02T11:59:03.675Z,101130.25
2022-12-02T12:01:31.456Z,101132.54
2022-12-02T12:03:59.189Z,101130.42
2022-12-02T12:06:29.683Z,101131.09
2022-12-02T12:08:57.727Z,101125.06
2022-12-02T12:11:28.556Z,101128.55
2022-12-02T12:14:25.618Z,101130.86
2022-12-02T12:17:16.896Z,101128.08
2022-12-02T12:19:44.708Z,101127.02
2022-12-02T12:22:30.409Z,101129.02
2022-12-02T12:25:41.968Z,101122.79
2022-12-02T12:28:30.828Z,101124.86
2022-12-02T12:31:00.492Z,101120.87
2022-12-02T12:33:28.984Z,101122.93
2022-12-02T12:35:58.044Z,101123.14
2022-12-02T12:38:30.705Z,101119.98
2022-12-02T12:40:59.156Z,101117.39
2022-12-02T12:43:26.914Z,101117.41
2022-12-02T12:45:54.767Z,101116.68
2022-12-02T12:48:22.568Z,101117.20
2022-12-02T12:50:50.324Z,101118.05
2022-12-02T12:53:18.054Z,101114.05
2022-12-02T12:55:45.764Z,101112.90
2022-12-02T12:58:14.443Z,101110.38
2022-12-02T13:00:42.224Z,101109.33
2022-12-02T13:03:10.158Z,101111.34
2022-12-02T13:05:37.937Z,101112.27
2022-12-02T13:08:09.583Z,101109.99
2022-12-02T13:10:38.083Z,101109.80
2022-12-02T13:13:06.821Z,101111.73
2022-12-02T13:15:35.131Z,101109.02
2022-12-02T13:18:04.121Z,101106.98
2022-12-02T13:20:32.228Z,101109.34
2022-12-02T13:23:00.027Z,101113.58
2022-12-02T13:25:27.750Z,101114.55
2022-12-02T13:27:55.688Z,101114.37
2022-12-02T13:30:24.119Z,101115.89
2022-12-02T13:32:52.400Z,101118.95
2022-12-02T13:35:22.743Z,101124.89
2022-12-02T13:37:50.919Z,101117.01
2022-12-02T13:40:19.546Z,101117.60
2022-12-02T13:42:47.264Z,101117.79
2022-12-02T13:45:15.488Z,101117.88
2022-12-02T13:47:43.195Z,101114.90
2022-12-02T13:50:11.103Z,101116.30
2022-12-02T13:52:38.862Z,101120.36
2022-12-02T13:55:07.091Z,101118.90
2022-12-02T13:57:35.030Z,101126.30
2022-12-02T14:00:03.272Z,101128.60
2022-12-02T14:02:42.303Z,101126.17
2022-12-02T14:05:10.657Z,101126.34
2022-12-02T14:07:38.573Z,101131.29
2022-12-02T14:10:07.131Z,101130.35
2022-12-02T14:12:34.940Z,101131.79
2022-12-02T14:15:02.780Z,101128.06
2022-12-02T14:17:30.548Z,101129.98
2022-12-02T14:19:58.293Z,101132.56
2022-12-02T14:22:26.047Z,101130.87
2022-12-02T14:24:54.096Z,101130.77
2022-12-02T14:27:22.134Z,101133.11
2022-12-02T14:29:49.837Z,101133.80
2022-12-02T14:32:17.563Z,101137.89
2022-12-02T14:34:45.378Z,101134.16
2022-12-02T14:37:15.165Z,101134.52
2022-12-02T14:39:43.358Z,101138.24
2022-12-02T14:42:11.137Z,101139.55
2022-12-02T14:44:38.885Z,101141.96
2022-12-02T14:47:06.643Z,101138.55
2022-12-02T14:49:42.133Z,101135.27
2022-12-02T14:52:10.679Z,101131.05
2022-12-02T14:54:38.747Z,101134.95
2022-12-02T14:57:06.593Z,101134.70
2022-12-02T14:59:34.415Z,101135.05
2022-12-02T15:02:02.229Z,101134.89
2022-12-02T15:04:30.125Z,101138.63
2022-12-02T15:06:57.970Z,101142.90
2022-12-02T15:09:26.100Z,101139.23
2022-12-02T15:11:54.276Z,101145.73
2022-12-02T15:14:22.078Z,101146.38
2022-12-02T15:16:50.069Z,101148.86
2022-12-02T15:19:17.946Z,101149.30
2022-12-02T15:21:45.693Z,101153.21
2022-12-02T15:24:13.480Z,101153.09
2022-12-02T15:26:41.206Z,101150.96
2022-12-02T15:29:09.357Z,101147.16
2022-12-02T15:31:37.162Z,101147.72
2022-12-02T15:34:05.046Z,101149.66
2022-12-02T15:36:32.833Z,101150.88
2022-12-02T15:39:00.524Z,101153.95
2022-12-02T15:41:28.266Z,101151.83
2022-12-02T15:43:56.222Z,101151.10
2022-12-02T15:46:24.321Z,101155.83
2022-12-02T15:48:52.244Z,101155.41
2022-12-02T15:51:20.109Z,101152.21
2022-12-02T15:53:47.940Z,101149.29
2022-12-02T15:56:15.855Z,101155.69
2022-12-02T15:58:43.637Z,101157.98
2022-12-02T16:01:11.566Z,101159.71
2022-12-02T16:03:39.319Z,101160.17
2022-12-02T16:06:07.668Z,101160.45
2022-12-02T16:08:35.516Z,101157.33
2022-12-02T16:11:03.298Z,101159.98
2022-12-02T16:13:31.074Z,101159.16
2022-12-02T16:15:58.927Z,101161.23
2022-12-02T16:18:27.047Z,101161.84
2022-12-02T16:20:55.901Z,101164.40
2022-12-02T16:23:23.863Z,101164.08
2022-12-02T16:25:52.006Z,101160.56
2022-12-02T16:28:19.770Z,101159.73
2022-12-02T16:30:47.502Z,101161.83
2022-12-02T16:33:15.206Z,101163.10
2022-12-02T16:35:43.004Z,101161.06
2022-12-02T16:38:10.861Z,101165.21
2022-12-02T16:40:38.714Z,101159.77
2022-12-02T16:43:06.648Z,101162.23
2022-12-02T16:45:34.732Z,101162.05
2022-12-02T16:48:02.779Z,101162.41
2022-12-02T16:50:31.136Z,101162.48
2022-12-02T16:52:58.979Z,101165.10
2022-12-02T16:55:26.919Z,101166.34
2022-12-02T16:57:54.712Z,101165.71
2022-12-02T17:00:22.727Z,101162.87
2022-12-02T17:02:51.262Z,101164.22
2022-12-02T17:05:19.175Z,101168.96
2022-12-02T17:07:47.124Z,101165.27
2022-12-02T17:10:15.270Z,101166.02
2022-12-02T17:12:43.047Z,101169.02
2022-12-02T17:15:11.624Z,101168.94
2022-12-02T17:17:47.312Z,101173.19
2022-12-02T17:20:15.940Z,101178.79
2022-12-02T17:22:44.212Z,101176.38
2022-12-02T17:25:13.237Z,101174.45
2022-12-02T17:27:41.376Z,101181.96
2022-12-02T17:30:11.063Z,101182.13
2022-12-02T17:32:39.148Z,101180.27
2022-12-02T17:35:07.508Z,101180.70
2022-12-02T17:37:35.372Z,101180.73
2022-12-02T17:40:03.662Z,101179.33
2022-12-02T17:42:31.451Z,101185.92
2022-12-02T17:44:59.353Z,101183.16
2022-12-02T17:47:27.240Z,101188.98
2022-12-02T17:49:55.067Z,101190.33
2022-12-02T17:52:22.906Z,101189.30
2022-12-02T17:54:51.110Z,101190.73
2022-12-02T17:57:19.231Z,101188.52
2022-12-02T17:59:46.961Z,101192.90
2022-12-02T18:02:14.937Z,101193.55
2022-12-02T18:04:44.561Z,101196.39
2022-12-02T18:07:13.097Z,101192.73
2022-12-02T18:09:42.859Z,101193.20
2022-12-02T18:12:10.859Z,101192.71
2022-12-02T18:14:38.723Z,101197.23
2022-12-02T18:17:07.388Z,101190.39
2022-12-02T18:19:35.298Z,101190.77
2022-12-02T18:22:03.045Z,101187.52
2022-12-02T18:24:31.200Z,101185.77
2022-12-02T18:26:58.904Z,101186.16
2022-12-02T18:29:26.697Z,101189.09
2022-12-02T18:31:54.403Z,101188.19
2022-12-02T18:34:23.566Z,101187.66
2022-12-02T18:36:51.404Z,101187.82
2022-12-02T18:39:19.185Z,101189.36
2022-12-02T18:41:46.880Z,101191.58
2022-12-02T18:44:14.606Z,101193.39
2022-12-02T18:46:42.373Z,101190.23
2022-12-02T18:49:10.275Z,101189.63
2022-12-02T18:51:38.013Z,101194.50
2022-12-02T18:54:05.840Z,101193.13
2022-12-02T18:56:33.608Z,101190.44
2022-12-02T18:59:01.422Z,101193.21
2022-12-02T19:01:33.825Z,101191.33
2022-12-02T19:04:02.233Z,101186.84
2022-12-02T19:06:30.024Z,101190.84
2022-12-02T19:08:57.856Z,101193.02
2022-12-02T19:11:25.722Z,101187.79
2022-12-02T19:13:53.498Z,101185.09
2022-12-02T19:16:21.450Z,101187.73
2022-12-02T19:18:50.380Z,101183.59
2022-12-02T19:21:24.257Z,101184.62
2022-12-02T19:23:52.759Z,101183.83
2022-12-02T19:26:21.925Z,101184.35
2022-12-02T19:28:49.734Z,101182.30
2022-12-02T19:31:18.184Z,101186.77
2022-12-02T19:33:45.992Z,101188.14
2022-12-02T19:36:13.732Z,101187.39
2022-12-02T19:38:41.577Z,101187.79
2022-12-02T19:41:09.316Z,101185.73
2022-12-02T19:43:37.019Z,101189.52
2022-12-02T19:46:05.237Z,101192.21
2022-12-02T19:48:33.098Z,101189.57
2022-12-02T19:51:00.817Z,101188.95
2022-12-02T19:53:28.590Z,101187.31
2022-12-02T19:55:56.310Z,101187.84
2022-12-02T19:58:24.095Z,101191.05
2022-12-02T20:00:51.922Z,101191.20
2022-12-02T20:03:19.875Z,101192.55
2022-12-02T20:05:47.856Z,101191.96
2022-12-02T20:08:16.112Z,101188.30
2022-12-02T20:10:44.017Z,101187.88
2022-12-02T20:13:12.081Z,101187.48
2022-12-02T20:15:39.967Z,101187.96
2022-12-02T20:18:07.931Z,101185.84
2022-12-02T20:20:35.716Z,101184.38
2022-12-02T20:23:04.362Z,101185.48
2022-12-02T20:25:32.551Z,101182.73
2022-12-02T20:28:00.358Z,101185.90
2022-12-02T20:30:28.103Z,101185.54
2022-12-02T20:32:55.854Z,101186.61
2022-12-02T20:35:23.549Z,101183.50
2022-12-02T20:37:51.350Z,101182.77
2022-12-02T20:40:19.282Z,101182.19
2022-12-02T20:42:47.126Z,101184.48
2022-12-02T20:45:14.953Z,101180.85
2022-12-02T20:47:42.696Z,101179.77
2022-12-02T20:50:11.169Z,101179.13
2022-12-02T20:52:38.904Z,101177.38
2022-12-02T20:55:07.523Z,101177.39
2022-12-02T20:57:35.390Z,101176.08
2022-12-02T21:00:04.229Z,101167.68
2022-12-02T21:02:31.994Z,101166.67
2022-12-02T21:04:59.927Z,101168.84
2022-12-02T21:07:27.864Z,101168.28
2022-12-02T21:09:56.307Z,101166.18
2022-12-02T21:12:24.033Z,101165.84
2022-12-02T21:14:52.323Z,101170.63
2022-12-02T21:17:20.376Z,101163.90
2022-12-02T21:19:48.343Z,101167.63
2022-12-02T21:22:16.087Z,101164.80
2022-12-02T21:24:43.875Z,101166.66
2022-12-02T21:27:11.862Z,101162.75
2022-12-02T21:29:39.642Z,101164.78
2022-12-02T21:32:07.575Z,101166.04
2022-12-02T21:34:35.382Z,101168.36
2022-12-02T21:37:03.446Z,101168.14
2022-12-02T21:39:31.356Z,101170.60
2022-12-02T21:41:59.124Z,101172.25
2022-12-02T21:44:26.985Z,101170.59
2022-12-02T21:46:54.776Z,101171.84
2022-12-02T21:49:22.670Z,101171.23
2022-12-02T21:51:51.988Z,101170.67
2022-12-02T21:54:19.776Z,101169.91
2022-12-02T21:56:47.455Z,101169.91
2022-12-02T21:59:15.271Z,101165.46
2022-12-02T22:01:43.644Z,101162.78
2022-12-02T22:04:13.923Z,101163.60
2022-12-02T22:06:42.140Z,101165.10
2022-12-02T22:09:10.139Z,101160.80
2022-12-02T22:11:38.125Z,101164.22
2022-12-02T22:14:05.902Z,101164.04
2022-12-02T22:16:33.863Z,101161.98
2022-12-02T22:19:01.648Z,101162.41
2022-12-02T22:21:29.545Z,101159.98
2022-12-02T22:23:57.303Z,101154.90
2022-12-02T22:26:25.204Z,101161.34
2022-12-02T22:28:53.008Z,101160.00
2022-12-02T22:31:20.832Z,101160.20
2022-12-02T22:33:48.707Z,101159.10
2022-12-02T22:36:16.418Z,101157.08
2022-12-02T22:38:44.154Z,101157.70
2022-12-02T22:41:11.927Z,101152.39
2022-12-02T22:43:39.685Z,101153.80
2022-12-02T22:46:07.575Z,101153.80
2022-12-02T22:48:35.463Z,101149.16
2022-12-02T22:51:03.383Z,101148.12
2022-12-02T22:53:31.109Z,101147.19
2022-12-02T22:55:58.859Z,101149.09
2022-12-02T22:58:26.542Z,101146.09
2022-12-02T23:00:54.334Z,101148.73
2022-12-02T23:03:22.182Z,101147.81
2022-12-02T23:05:49.940Z,101149.33
2022-12-02T23:08:17.772Z,101146.91
2022-12-02T23:10:45.717Z,101146.87
2022-12-02T23:13:13.478Z,101150.82
2022-12-02T23:15:41.651Z,101150.16
2022-12-02T23:18:09.904Z,101146.64
2022-12-02T23:20:37.665Z,101146.95
2022-12-02T23:23:05.737Z,101147.23
2022-12-02T23:25:34.604Z,101147.77
2022-12-02T23:28:02.537Z,101148.86
2022-12-02T23:30:30.457Z,101150.14
2022-12-02T23:32:59.149Z,101150.71
2022-12-02T23:35:27.852Z,101148.40
2022-12-02T23:37:55.679Z,101153.05
2022-12-02T23:40:23.890Z,101151.41
2022-12-02T23:42:51.610Z,101153.63
2022-12-02T23:45:19.393Z,101154.58
2022-12-02T23:47:47.160Z,101152.09
2022-12-02T23:50:14.913Z,101156.97
2022-12-02T23:52:42.643Z,101154.55
2022-12-02T23:55:11.069Z,101149.75
2022-12-02T23:57:38.801Z,101147.81
